.
WxDataArchive / Data Records for 2016-03-31
2016-03-30 March 2016 2016-04-01

Data Records for Thursday, 31 March 2016

Time	Temp	Chill	HIndex	Humid	Dewpt	 Wind 	HiWind	WindDir	Rain 	Barom
-----	----	-----	------	-----	-----	------	------	-------	-----	-----
00:00	56.0	56.0	56.0	93	54.0	1	4	112	0.00	29.684 
00:05	56.0	56.0	56.0	93	54.0	1	4	112	0.00	29.684 
00:10	56.0	56.0	56.0	93	54.0	0	2	112	0.00	29.684 
00:15	56.0	56.0	56.0	93	54.0	0	2	112	0.01	29.670 
00:20	56.0	56.0	56.0	93	54.0	0	2	112	0.00	29.670 
00:25	56.0	56.0	56.0	92	53.7	0	2	112	0.00	29.670 
00:30	56.0	56.0	56.0	92	53.7	1	4	90	0.01	29.671 
00:35	56.0	56.0	56.0	92	53.7	1	4	90	0.00	29.671 
00:40	56.0	56.0	56.0	92	53.7	1	3	90	0.00	29.671 
00:45	56.0	56.0	56.0	92	53.7	1	4	112	0.01	29.661 
00:50	56.0	56.0	56.0	92	53.7	2	5	112	0.00	29.661 
00:55	56.0	56.0	56.0	92	53.7	1	5	112	0.00	29.661 
01:00	56.2	56.2	56.2	92	53.9	2	9	90	0.00	29.652 
01:05	56.2	56.2	56.2	92	53.9	2	5	90	0.00	29.652 
01:10	56.2	56.2	56.2	91	53.6	1	6	112	0.00	29.652 
01:15	56.3	56.3	56.3	91	53.7	1	6	45	0.00	29.640 
01:20	56.3	56.3	56.3	90	53.4	1	5	45	0.00	29.640 
01:25	56.3	56.3	56.3	90	53.4	1	5	90	0.00	29.640 
01:30	56.3	56.3	56.3	90	53.4	1	3	68	0.00	29.626 
01:35	56.3	56.3	56.3	90	53.4	1	4	68	0.00	29.626 
01:40	56.3	56.3	56.3	90	53.4	2	5	45	0.00	29.626 
01:45	56.5	56.5	56.5	89	53.3	1	6	112	0.00	29.613 
01:50	56.5	56.5	56.5	89	53.3	2	6	68	0.00	29.613 
01:55	56.5	56.5	56.5	88	53.0	2	7	90	0.01	29.613 
02:00	56.5	56.5	56.5	88	53.0	1	5	45	0.00	29.600 
02:05	56.5	56.5	56.5	88	53.0	1	4	135	0.00	29.600 
02:10	56.5	56.5	56.5	88	53.0	2	4	112	0.00	29.600 
02:15	56.5	56.5	56.5	88	53.0	1	7	112	0.00	29.594 
02:20	56.5	56.5	56.5	88	53.0	1	5	112	0.00	29.594 
02:25	56.5	56.5	56.5	88	53.0	2	5	90	0.00	29.594 
02:30	56.5	56.5	56.5	88	53.0	2	6	90	0.01	29.585 
02:35	56.5	56.5	56.5	88	53.0	1	4	68	0.00	29.585 
02:40	56.3	56.3	56.3	88	52.8	2	10	90	0.00	29.585 
02:45	56.3	56.3	56.3	88	52.8	2	6	90	0.00	29.577 
02:50	56.5	56.5	56.5	88	53.0	2	10	225	0.00	29.577 
02:55	56.5	56.5	56.5	88	53.0	2	10	112	0.00	29.577 
03:00	56.5	56.5	56.5	88	53.0	2	9	90	0.00	29.570 
03:05	56.5	56.5	56.5	88	53.0	3	7	90	0.00	29.570 
03:10	56.5	56.5	56.5	88	53.0	2	9	112	0.00	29.570 
03:15	56.3	56.3	56.3	88	52.8	1	4	90	0.00	29.562 
03:20	56.3	56.3	56.3	89	53.1	2	10	90	0.01	29.562 
03:25	56.2	56.2	56.2	89	53.0	1	4	90	0.00	29.562 
03:30	56.0	56.0	56.0	90	53.1	1	3	270	0.00	29.551 
03:35	55.9	55.9	55.9	90	53.0	1	4	0	0.00	29.551 
03:40	55.7	55.7	55.7	90	52.8	1	6	68	0.00	29.551 
03:45	55.7	55.7	55.7	91	53.1	1	4	90	0.01	29.546 
03:50	55.7	55.7	55.7	91	53.1	1	5	112	0.00	29.546 
03:55	55.6	55.6	55.6	91	53.0	2	7	112	0.01	29.546 
04:00	55.6	55.6	55.6	91	53.0	1	5	135	0.00	29.535 
04:05	55.6	55.6	55.6	91	53.0	1	7	292	0.01	29.535 
04:10	55.4	55.4	55.4	92	53.1	1	3	90	0.00	29.535 
04:15	55.4	55.4	55.4	92	53.1	1	7	90	0.00	29.532 
04:20	55.4	55.4	55.4	92	53.1	2	10	90	0.00	29.532 
04:25	55.3	55.3	55.3	92	53.0	2	6	90	0.01	29.532 
04:30	55.3	55.3	55.3	92	53.0	1	4	315	0.00	29.525 
04:35	55.3	55.3	55.3	92	53.0	2	9	68	0.00	29.525 
04:40	55.3	55.3	55.3	92	53.0	1	4	248	0.00	29.525 
04:45	55.3	55.3	55.3	92	53.0	1	4	248	0.01	29.518 
04:50	55.3	55.3	55.3	92	53.0	1	4	248	0.00	29.518 
04:55	55.3	55.3	55.3	92	53.0	1	6	248	0.00	29.518 
05:00	55.4	55.4	55.4	92	53.1	2	9	292	0.00	29.515 
05:05	55.6	55.6	55.6	92	53.3	1	6	270	0.00	29.515 
05:10	55.6	55.6	55.6	91	53.0	1	9	248	0.00	29.515 
05:15	55.7	55.7	55.7	91	53.1	1	5	270	0.00	29.513 
05:20	55.9	55.9	55.9	90	53.0	2	7	248	0.00	29.513 
05:25	56.0	56.0	56.0	89	52.8	2	6	248	0.00	29.513 
05:30	56.0	56.0	56.0	89	52.8	1	4	248	0.00	29.505 
05:35	56.2	56.2	56.2	88	52.7	2	7	248	0.00	29.505 
05:40	56.2	56.2	56.2	88	52.7	2	7	248	0.00	29.505 
05:45	56.3	56.3	56.3	87	52.5	2	5	248	0.00	29.503 
05:50	56.3	56.3	56.3	87	52.5	2	6	248	0.00	29.503 
05:55	56.3	56.3	56.3	87	52.5	2	5	248	0.00	29.503 
06:00	56.5	56.5	56.5	87	52.7	1	5	225	0.00	29.497 
06:05	56.5	56.5	56.5	87	52.7	1	4	270	0.00	29.497 
06:10	56.5	56.5	56.5	87	52.7	1	5	248	0.00	29.497 
06:15	56.5	56.5	56.5	87	52.7	2	10	248	0.00	29.497 
06:20	56.5	56.5	56.5	87	52.7	2	7	248	0.00	29.497 
06:25	56.5	56.5	56.5	87	52.7	1	6	248	0.00	29.497 
06:30	56.5	56.5	56.5	87	52.7	1	4	248	0.00	29.501 
06:35	56.6	56.6	56.6	87	52.8	1	5	248	0.00	29.501 
06:40	56.6	56.6	56.6	86	52.5	1	7	248	0.00	29.501 
06:45	56.6	56.6	56.6	86	52.5	2	6	68	0.00	29.496 
06:50	56.7	56.7	56.7	86	52.6	1	5	248	0.00	29.496 
06:55	56.7	56.7	56.7	87	52.9	2	7	68	0.01	29.496 
07:00	56.6	56.6	56.6	87	52.8	1	5	68	0.00	29.498 
07:05	56.5	56.5	56.5	88	53.0	2	6	248	0.01	29.498 
07:10	56.5	56.5	56.5	88	53.0	1	4	248	0.00	29.498 
07:15	56.3	56.3	56.3	89	53.1	1	6	248	0.02	29.502 
07:20	56.3	56.3	56.3	89	53.1	1	4	248	0.01	29.502 
07:25	56.2	56.2	56.2	90	53.3	1	6	248	0.00	29.502 
07:30	56.0	56.0	56.0	90	53.1	1	5	248	0.01	29.500 
07:35	55.9	55.9	55.9	90	53.0	2	7	135	0.01	29.500 
07:40	55.9	55.9	55.9	90	53.0	1	5	22	0.00	29.500 
07:45	55.7	55.7	55.7	91	53.1	1	3	315	0.00	29.502 
07:50	55.7	55.7	55.7	91	53.1	1	4	90	0.01	29.502 
07:55	55.6	55.6	55.6	91	53.0	1	11	68	0.00	29.502 
08:00	55.6	55.6	55.6	91	53.0	1	5	248	0.02	29.503 
08:05	55.6	55.6	55.6	91	53.0	2	9	292	0.02	29.503 
08:10	55.6	55.6	55.6	91	53.0	1	4	45	0.01	29.503 
08:15	55.4	55.4	55.4	91	52.8	1	4	68	0.00	29.502 
08:20	55.4	55.4	55.4	92	53.1	1	3	270	0.01	29.502 
08:25	55.4	55.4	55.4	92	53.1	1	6	248	0.02	29.502 
08:30	55.4	55.4	55.4	92	53.1	3	6	270	0.01	29.504 
08:35	55.4	55.4	55.4	92	53.1	2	6	248	0.01	29.504 
08:40	55.4	55.4	55.4	92	53.1	1	12	270	0.01	29.504 
08:45	55.4	55.4	55.4	92	53.1	2	6	292	0.01	29.494 
08:50	55.6	55.6	55.6	92	53.3	3	15	248	0.01	29.494 
08:55	55.6	55.6	55.6	92	53.3	3	11	248	0.01	29.494 
09:00	55.6	55.6	55.6	92	53.3	2	10	270	0.00	29.495 
09:05	55.6	55.6	55.6	92	53.3	2	12	270	0.00	29.495 
09:10	55.7	55.7	55.7	92	53.4	1	4	248	0.00	29.495 
09:15	55.7	55.7	55.7	92	53.4	1	3	315	0.01	29.493 
09:20	55.7	55.7	55.7	92	53.4	2	5	248	0.00	29.493 
09:25	55.7	55.7	55.7	92	53.4	2	7	202	0.00	29.493 
09:30	55.7	55.7	55.7	92	53.4	1	6	90	0.01	29.488 
09:35	55.7	55.7	55.7	92	53.4	2	6	248	0.01	29.488 
09:40	55.7	55.7	55.7	92	53.4	1	5	248	0.00	29.488 
09:45	55.6	55.6	55.6	92	53.3	1	5	248	0.00	29.476 
09:50	55.6	55.6	55.6	92	53.3	1	4	270	0.00	29.476 
09:55	55.6	55.6	55.6	92	53.3	2	4	270	0.00	29.476 
10:00	55.6	55.6	55.6	92	53.3	1	4	292	0.01	29.473 
10:05	55.6	55.6	55.6	92	53.3	1	4	248	0.00	29.473 
10:10	55.6	55.6	55.6	92	53.3	1	4	292	0.00	29.473 
10:15	55.6	55.6	55.6	92	53.3	1	4	248	0.00	29.466 
10:20	55.6	55.6	55.6	92	53.3	2	7	270	0.00	29.466 
10:25	55.6	55.6	55.6	92	53.3	1	5	90	0.00	29.466 
10:30	55.6	55.6	55.6	92	53.3	1	4	45	0.01	29.457 
10:35	55.7	55.7	55.7	92	53.4	1	4	270	0.00	29.457 
10:40	55.7	55.7	55.7	92	53.4	1	4	248	0.00	29.457 
10:45	55.7	55.7	55.7	92	53.4	1	6	45	0.00	29.446 
10:50	55.7	55.7	55.7	92	53.4	1	6	248	0.00	29.446 
10:55	55.7	55.7	55.7	92	53.4	1	5	248	0.00	29.446 
11:00	55.9	55.9	55.9	92	53.6	1	5	248	0.00	29.450 
11:05	55.9	55.9	55.9	92	53.6	1	7	248	0.00	29.450 
11:10	55.9	55.9	55.9	92	53.6	1	4	248	0.00	29.450 
11:15	56.0	56.0	56.0	92	53.7	1	5	68	0.00	29.444 
11:20	56.0	56.0	56.0	92	53.7	2	6	270	0.01	29.444 
11:25	56.2	56.2	56.2	92	53.9	1	5	248	0.00	29.444 
11:30	56.2	56.2	56.2	92	53.9	1	3	225	0.00	29.449 
11:35	56.3	56.3	56.3	91	53.7	1	4	270	0.00	29.449 
11:40	56.3	56.3	56.3	91	53.7	2	7	270	0.00	29.449 
11:45	56.3	56.3	56.3	91	53.7	2	5	248	0.00	29.454 
11:50	56.5	56.5	56.5	91	53.9	2	5	248	0.00	29.454 
11:55	56.6	56.6	56.6	91	54.0	1	4	270	0.00	29.454 
12:00	56.7	56.7	56.7	91	54.1	1	4	270	0.00	29.445 
12:05	56.9	56.9	56.9	91	54.3	1	4	270	0.00	29.445 
12:10	56.9	56.9	56.9	90	54.0	2	7	248	0.00	29.445 
12:15	57.0	57.0	57.0	90	54.1	1	4	248	0.00	29.445 
12:20	57.0	57.0	57.0	90	54.1	1	7	248	0.00	29.445 
12:25	57.2	57.2	57.2	90	54.3	1	4	248	0.00	29.445 
12:30	57.2	57.2	57.2	89	54.0	2	5	248	0.00	29.443 
12:35	57.3	57.3	57.3	89	54.1	2	5	248	0.00	29.443 
12:40	57.3	57.3	57.3	89	54.1	1	3	248	0.00	29.443 
12:45	57.5	57.5	57.5	89	54.3	2	4	248	0.00	29.443 
12:50	57.6	57.6	57.6	89	54.4	1	4	248	0.00	29.443 
12:55	57.8	57.8	57.8	89	54.6	2	6	248	0.00	29.443 
13:00	58.0	58.0	58.0	89	54.8	1	6	225	0.00	29.440 
13:05	58.0	58.0	58.0	89	54.8	1	5	225	0.00	29.440 
13:10	58.1	58.1	58.1	89	54.9	1	5	248	0.00	29.440 
13:15	58.4	58.4	58.4	88	54.9	2	6	248	0.00	29.435 
13:20	58.7	58.7	58.7	88	55.2	1	5	248	0.00	29.435 
13:25	59.0	59.0	59.0	88	55.4	1	4	248	0.00	29.435 
13:30	59.3	59.3	59.3	88	55.7	1	6	248	0.00	29.422 
13:35	59.9	59.9	59.9	87	56.0	1	3	270	0.00	29.422 
13:40	60.2	60.2	60.2	86	56.0	1	5	270	0.00	29.422 
13:45	60.9	60.9	60.9	86	56.7	1	4	248	0.00	29.412 
13:50	61.3	61.3	61.3	85	56.7	1	4	270	0.00	29.412 
13:55	61.8	61.8	61.8	84	56.9	2	5	270	0.00	29.412 
14:00	62.1	62.1	62.1	82	56.5	2	5	248	0.00	29.405 
14:05	62.3	62.3	62.3	82	56.7	2	5	248	0.00	29.405 
14:10	62.6	62.6	62.6	81	56.7	2	11	248	0.00	29.405 
14:15	62.9	62.9	62.9	82	57.3	2	5	292	0.00	29.389 
14:20	63.2	63.2	63.2	80	56.9	2	7	248	0.00	29.389 
14:25	63.5	63.5	63.5	80	57.2	2	6	248	0.00	29.389 
14:30	63.7	63.7	63.7	80	57.4	2	5	248	0.00	29.384 
14:35	63.7	63.7	63.7	79	57.1	2	6	248	0.00	29.384 
14:40	63.7	63.7	63.7	79	57.1	3	9	248	0.00	29.384 
14:45	64.0	64.0	64.0	79	57.4	2	13	225	0.00	29.366 
14:50	64.0	64.0	64.0	78	57.0	3	9	248	0.00	29.366 
14:55	64.3	64.3	64.3	78	57.3	2	6	248	0.00	29.366 
15:00	64.3	64.3	64.3	77	56.9	2	5	248	0.00	29.361 
15:05	64.3	64.3	64.3	77	56.9	2	5	248	0.00	29.361 
15:10	64.3	64.3	64.3	77	56.9	2	7	248	0.00	29.361 
15:15	64.3	64.3	64.3	78	57.3	2	5	248	0.00	29.343 
15:20	64.7	64.7	64.7	77	57.3	3	10	248	0.00	29.343 
15:25	64.8	64.8	64.8	77	57.4	3	11	68	0.00	29.343 
15:30	64.8	64.8	64.8	77	57.4	2	5	270	0.00	29.334 
15:35	64.7	64.7	64.7	78	57.7	1	6	270	0.00	29.334 
15:40	64.5	64.5	64.5	78	57.5	2	10	248	0.00	29.334 
15:45	64.5	64.5	64.5	79	57.8	2	6	248	0.00	29.339 
15:50	64.3	64.3	64.3	79	57.6	3	11	248	0.00	29.339 
15:55	64.3	64.3	64.3	78	57.3	3	7	225	0.00	29.339 
16:00	64.5	64.5	64.5	79	57.8	2	14	68	0.00	29.340 
16:05	64.8	64.8	64.8	79	58.1	4	11	248	0.00	29.340 
16:10	65.3	65.3	65.3	77	57.9	4	13	248	0.00	29.340 
16:15	65.5	65.5	65.5	77	58.1	3	9	248	0.00	29.328 
16:20	66.0	66.0	66.0	77	58.6	3	8	248	0.00	29.328 
16:25	66.3	66.3	66.3	74	57.8	3	10	248	0.00	29.328 
16:30	66.3	66.3	66.3	74	57.8	4	13	248	0.00	29.345 
16:35	66.3	66.3	66.3	74	57.8	3	9	248	0.00	29.345 
16:40	66.1	66.1	66.1	75	57.9	3	11	248	0.00	29.345 
16:45	65.8	65.8	65.8	75	57.6	4	10	248	0.00	29.357 
16:50	65.8	65.8	65.8	76	58.0	2	6	248	0.00	29.357 
16:55	65.8	65.8	65.8	76	58.0	3	11	248	0.00	29.357 
17:00	65.8	65.8	65.8	76	58.0	3	9	270	0.00	29.359 
17:05	65.5	65.5	65.5	76	57.7	3	11	270	0.00	29.359 
17:10	65.3	65.3	65.3	77	57.9	4	9	248	0.00	29.359 
17:15	65.2	65.2	65.2	77	57.8	3	6	248	0.00	29.369 
17:20	65.0	65.0	65.0	77	57.6	2	6	248	0.00	29.369 
17:25	64.8	64.8	64.8	78	57.8	2	10	248	0.00	29.369 
17:30	64.7	64.7	64.7	78	57.7	2	6	248	0.00	29.368 
17:35	64.5	64.5	64.5	80	58.2	2	7	270	0.00	29.368 
17:40	64.0	64.0	64.0	82	58.4	3	7	270	0.02	29.368 
17:45	63.1	63.1	63.1	84	58.2	4	7	248	0.02	29.389 
17:50	60.2	60.2	60.2	84	55.3	5	10	270	0.04	29.389 
17:55	58.7	58.7	58.7	87	54.8	4	10	248	0.07	29.389 
18:00	58.4	58.4	58.4	89	55.2	2	7	248	0.02	29.373 
18:05	58.6	58.6	58.6	91	56.0	1	6	270	0.01	29.373 
18:10	59.3	59.3	59.3	92	57.0	2	4	248	0.00	29.373 
18:15	59.9	59.9	59.9	92	57.6	1	4	248	0.00	29.362 
18:20	60.1	60.1	60.1	92	57.8	0	2	248	0.00	29.362 
18:25	60.2	60.2	60.2	93	58.2	0	2	248	0.00	29.362 
18:30	60.4	60.4	60.4	93	58.4	0	2	248	0.00	29.366 
18:35	60.7	60.7	60.7	93	58.7	1	4	248	0.00	29.366 
18:40	60.9	60.9	60.9	93	58.9	1	5	248	0.00	29.366 
18:45	61.0	61.0	61.0	93	59.0	1	3	248	0.00	29.370 
18:50	61.2	61.2	61.2	93	59.2	1	4	248	0.01	29.370 
18:55	61.3	61.3	61.3	93	59.3	1	4	248	0.00	29.370 
19:00	61.5	61.5	61.5	93	59.5	3	7	248	0.00	29.388 
19:05	61.5	61.5	61.5	93	59.5	1	4	248	0.00	29.388 
19:10	61.3	61.3	61.3	93	59.3	2	9	270	0.00	29.388 
19:15	61.3	61.3	61.3	92	59.0	3	8	248	0.00	29.388 
19:20	61.6	61.6	61.6	91	58.9	2	10	248	0.00	29.388 
19:25	61.8	61.8	61.8	90	58.8	1	4	248	0.00	29.388 
19:30	62.1	62.1	62.1	89	58.8	2	6	248	0.00	29.390 
19:35	62.1	62.1	62.1	88	58.5	2	4	248	0.00	29.390 
19:40	62.1	62.1	62.1	87	58.2	2	6	248	0.00	29.390 
19:45	62.1	62.1	62.1	86	57.9	2	10	248	0.00	29.401 
19:50	62.3	62.3	62.3	84	57.4	2	7	248	0.00	29.401 
19:55	62.4	62.4	62.4	83	57.2	2	5	248	0.00	29.401 
20:00	62.4	62.4	62.4	82	56.8	2	5	248	0.00	29.401 
20:05	62.4	62.4	62.4	81	56.5	3	10	248	0.00	29.401 
20:10	62.4	62.4	62.4	80	56.1	2	5	248	0.00	29.401 
20:15	62.4	62.4	62.4	79	55.8	2	6	248	0.00	29.414 
20:20	62.3	62.3	62.3	78	55.3	2	5	270	0.00	29.414 
20:25	62.1	62.1	62.1	77	54.8	2	5	270	0.00	29.414 
20:30	61.8	61.8	61.8	77	54.5	2	5	248	0.00	29.420 
20:35	61.5	61.5	61.5	77	54.2	2	4	248	0.00	29.420 
20:40	61.3	61.3	61.3	77	54.0	2	5	248	0.00	29.420 
20:45	61.0	61.0	61.0	78	54.1	1	3	270	0.00	29.430 
20:50	60.9	60.9	60.9	78	54.0	1	3	270	0.00	29.430 
20:55	60.5	60.5	60.5	78	53.6	1	3	270	0.00	29.430 
21:00	60.4	60.4	60.4	78	53.5	1	4	248	0.00	29.447 
21:05	60.1	60.1	60.1	78	53.2	1	3	248	0.00	29.447 
21:10	59.8	59.8	59.8	78	52.9	2	6	248	0.00	29.447 
21:15	59.6	59.6	59.6	77	52.4	1	6	248	0.00	29.455 
21:20	59.3	59.3	59.3	77	52.1	2	5	248	0.00	29.455 
21:25	59.2	59.2	59.2	77	52.0	2	5	248	0.00	29.455 
21:30	58.9	58.9	58.9	77	51.7	2	7	248	0.00	29.469 
21:35	58.7	58.7	58.7	77	51.5	3	9	270	0.00	29.469 
21:40	58.6	58.6	58.6	77	51.4	3	7	248	0.00	29.469 
21:45	58.3	58.3	58.3	77	51.1	3	7	248	0.00	29.473 
21:50	58.0	58.0	58.0	76	50.5	3	5	270	0.00	29.473 
21:55	57.5	57.5	57.5	75	49.6	3	7	292	0.00	29.473 
22:00	57.3	57.3	57.3	76	49.8	2	5	270	0.00	29.475 
22:05	56.9	56.9	56.9	76	49.4	2	3	248	0.00	29.475 
22:10	56.7	56.7	56.7	77	49.6	2	4	248	0.00	29.475 
22:15	56.5	56.5	56.5	77	49.4	2	4	248	0.00	29.487 
22:20	56.0	56.0	56.0	77	48.9	1	4	248	0.00	29.487 
22:25	55.7	55.7	55.7	73	47.2	2	7	248	0.00	29.487 
22:30	55.6	55.6	55.6	69	45.6	3	6	270	0.00	29.492 
22:35	55.4	55.4	55.4	69	45.4	3	6	292	0.00	29.492 
22:40	55.1	55.1	55.1	69	45.1	2	5	248	0.00	29.492 
22:45	54.7	54.7	54.7	69	44.7	2	4	270	0.00	29.501 
22:50	54.5	54.5	54.5	69	44.5	2	5	270	0.00	29.501 
22:55	54.2	54.2	54.2	70	44.6	1	4	270	0.00	29.501 
23:00	53.9	53.9	53.9	71	44.7	1	3	292	0.00	29.501 
23:05	53.6	53.6	53.6	71	44.4	0	3	292	0.00	29.501 
23:10	53.2	53.2	53.2	72	44.4	1	3	292	0.00	29.501 
23:15	53.1	53.1	53.1	72	44.3	1	3	292	0.00	29.494 
23:20	52.9	52.9	52.9	73	44.5	1	4	292	0.00	29.494 
23:25	52.6	52.6	52.6	73	44.2	1	3	292	0.00	29.494 
23:30	52.5	52.5	52.5	74	44.5	1	3	270	0.00	29.498 
23:35	52.3	52.3	52.3	74	44.3	1	4	270	0.00	29.498 
23:40	52.3	52.3	52.3	73	43.9	1	4	248	0.00	29.498 
23:45	52.2	52.2	52.2	73	43.8	1	5	248	0.00	29.506 
23:50	52.2	52.2	52.2	73	43.8	1	4	248	0.00	29.506 
23:55	52.2	52.2	52.2	73	43.8	2	4	248	0.00	29.506 

CoCoRaHS
IN-AL-39
A2 Web Hosting
Creative Commons License
GoDaddy
search engine by freefind advanced

loaded 2018-11-21 01:53:59 • last modified 2010-11-18 10:43:29
Privacy PolicyDisclaimer
• wx.awcolley.com is powered by PmWiki v.2002016 •
• all content (unless otherwise noted) © 2018 A W Colley